Hauptseite
METAR-TAF:

METAR-TAF

Flughäfen :

Woodvale, England

Breite: 53-34-54N, Länge: 003-03-20W, Höhe: 11 m

Beobachtung

Neuester Wetterbericht von vor 3 Stunden und 45 Minuten, um 15:50 UTC
Wind 7 kt aus Nordwest
Temperatur 15°C
Luftfeuchtigkeit 67%
Luftdruck 1018 hPa
Sichtweite 10 km oder mehr
Leicht bewölkt in der Höhe von 3500 ft

METAR: EGOW 221550Z 31007KT 9999 FEW035 15/09 Q1018 BLU

Zeit: 20:35 (19:35 UTC)

Prognose

Neuester Wetterbericht von vor 5 Stunden und 57 Minuten, um 13:38 UTC
Gültige Prognose vom 22 um 15 UTC bis 22 um 18 UTC
Wind 8 kt aus West
Sichtweite 10 km oder mehr
Aufgelockert bewölkt in der Höhe von 4000 ft

TAF: EGOW 221338Z 2215/2218 28008KT 9999 SCT040

Wetterbeobachtungen und Prognosen von mehr als 4000 Flughäfen (METAR und TAF Bericht).

Die verfügbaren Stationen werden durch gelbe und rote Markierungen auf der Karte dargestellt.

Führen Sie die Maus auf sie, um den Namen der Station zu sehen.

Darauf klicken, um die Beobachtung von Wetterbeobachtungen und Prognosen zu sehen.

Um die Karte zu ändern : klicken Sie auf den grünen Tasten mit einem schwarzen Kreuz Zum Vergrößern, auf den grünen Button mit einem Gedankenstrich zu verkleinern, oder auf die grünen Pfeile für benachbarte Karten.


METAR-TAF: